Time;durP1;ratioP1;P1;durP2;ratioP2;P2;SDS_P1;SDS_P2;PMS_P1;PMS_P2;Temp;Humidity;BMP_temperature;BMP_pressure;BME280_temperature;BME280_humidity;BME280_pressure;Samples;Min_cycle;Max_cycle;Signal;HPM_P1;HPM_P2
2024/01/28 00:01:32;;;;;;;92.63;46.47;;;4.00;74.00;;;;;;5017498;28;20049;-66
2024/01/28 00:03:59;;;;;;;91.07;48.25;;;4.00;74.00;;;;;;5017402;28;20018;-66
2024/01/28 00:06:24;;;;;;;93.35;49.30;;;4.00;73.70;;;;;;5017324;28;20443;-66
2024/01/28 00:08:50;;;;;;;89.60;48.20;;;4.00;73.60;;;;;;5017271;28;20064;-66
2024/01/28 00:11:16;;;;;;;92.60;47.63;;;3.90;73.70;;;;;;5017173;28;20407;-66
2024/01/28 00:13:42;;;;;;;82.75;45.08;;;3.90;74.00;;;;;;5017484;28;20057;-65
2024/01/28 00:16:15;;;;;;;85.18;43.95;;;3.90;74.00;;;;;;5017676;28;20037;-66
2024/01/28 00:18:41;;;;;;;81.45;44.85;;;3.90;73.80;;;;;;5017423;28;20443;-65
2024/01/28 00:21:07;;;;;;;80.95;42.22;;;3.90;73.80;;;;;;5016224;28;20050;-66
2024/01/28 00:23:33;;;;;;;75.38;42.20;;;3.90;73.80;;;;;;5017269;28;20022;-66
2024/01/28 00:26:01;;;;;;;86.85;45.15;;;3.90;73.80;;;;;;5016955;28;20447;-66
2024/01/28 00:28:29;;;;;;;84.82;44.90;;;3.90;73.70;;;;;;5016877;28;20037;-66
2024/01/28 00:30:55;;;;;;;78.05;41.10;;;3.80;73.60;;;;;;5017069;28;20045;-66
2024/01/28 00:33:21;;;;;;;82.45;43.22;;;3.70;73.90;;;;;;5017343;28;20044;-66
2024/01/28 00:35:47;;;;;;;77.30;41.00;;;3.60;73.80;;;;;;5016736;28;20030;-66
2024/01/28 00:38:13;;;;;;;78.72;40.45;;;3.50;73.90;;;;;;5016753;28;20355;-65
2024/01/28 00:40:39;;;;;;;76.43;39.58;;;3.50;74.00;;;;;;5016719;28;20100;-66
2024/01/28 00:43:05;;;;;;;78.18;41.30;;;3.50;74.20;;;;;;5015223;28;20026;-66
2024/01/28 00:45:31;;;;;;;77.78;41.80;;;3.50;73.90;;;;;;5016569;28;20018;-66
2024/01/28 00:47:58;;;;;;;79.88;40.80;;;3.50;74.20;;;;;;5016811;28;20064;-66
2024/01/28 00:50:24;;;;;;;75.72;39.47;;;3.50;74.20;;;;;;5016380;28;20029;-66
2024/01/28 00:52:51;;;;;;;80.72;41.85;;;3.50;74.20;;;;;;5016699;28;20073;-65
2024/01/28 00:55:16;;;;;;;70.25;37.53;;;3.50;74.30;;;;;;5016719;28;20025;-65
2024/01/28 00:57:42;;;;;;;72.55;38.60;;;3.60;74.30;;;;;;5016876;28;20394;-65
2024/01/28 01:00:09;;;;;;;72.95;38.42;;;3.60;74.30;;;;;;5016658;28;20058;-66
2024/01/28 01:02:35;;;;;;;73.95;38.20;;;3.60;74.10;;;;;;5016292;28;20392;-66
2024/01/28 01:05:01;;;;;;;72.82;38.50;;;3.60;74.00;;;;;;5016476;28;20018;-66
2024/01/28 01:07:28;;;;;;;69.05;35.65;;;3.60;74.00;;;;;;5016175;28;20022;-66
2024/01/28 01:09:54;;;;;;;69.55;36.35;;;3.60;74.10;;;;;;5016406;28;20029;-66
2024/01/28 01:12:20;;;;;;;63.33;34.35;;;3.60;74.10;;;;;;5016022;28;20125;-65
2024/01/28 01:14:46;;;;;;;63.50;36.10;;;3.60;74.10;;;;;;5016309;28;20022;-65
2024/01/28 01:17:12;;;;;;;69.50;37.30;;;3.60;74.20;;;;;;5016044;28;20036;-65
2024/01/28 01:19:38;;;;;;;67.65;34.60;;;3.60;74.00;;;;;;5015919;28;20030;-66
2024/01/28 01:22:04;;;;;;;59.00;32.88;;;3.60;74.10;;;;;;5015751;28;20125;-66
2024/01/28 01:24:30;;;;;;;66.80;34.60;;;3.60;74.00;;;;;;5015866;28;20213;-66
2024/01/28 01:26:56;;;;;;;62.95;33.92;;;3.60;74.20;;;;;;5015918;28;20018;-66
2024/01/28 01:29:22;;;;;;;73.72;35.15;;;3.60;74.10;;;;;;5015864;28;20033;-66
2024/01/28 01:31:48;;;;;;;68.95;35.05;;;3.50;73.90;;;;;;5015413;28;20436;-66
2024/01/28 01:34:14;;;;;;;65.60;33.10;;;3.50;73.90;;;;;;5015786;28;20033;-66
2024/01/28 01:36:43;;;;;;;58.08;29.55;;;3.50;73.90;;;;;;5015797;28;20458;-66
2024/01/28 01:39:09;;;;;;;58.67;32.42;;;3.40;73.80;;;;;;5015732;28;20026;-66
2024/01/28 01:41:35;;;;;;;63.50;33.50;;;3.40;74.00;;;;;;5015548;28;20060;-66
2024/01/28 01:44:02;;;;;;;59.42;32.72;;;3.40;74.00;;;;;;5016191;28;20420;-65
2024/01/28 01:46:29;;;;;;;58.53;32.50;;;3.40;74.00;;;;;;5015883;28;20399;-66
2024/01/28 01:48:57;;;;;;;66.63;33.45;;;3.40;73.90;;;;;;5016133;28;20115;-66
2024/01/28 01:51:23;;;;;;;63.92;32.92;;;3.40;74.00;;;;;;5016099;28;20041;-66
2024/01/28 01:53:50;;;;;;;60.33;33.13;;;3.40;74.20;;;;;;5015566;28;20486;-66
2024/01/28 01:56:17;;;;;;;59.47;32.33;;;3.30;74.00;;;;;;5015511;28;20034;-66
2024/01/28 01:58:44;;;;;;;60.17;31.77;;;3.30;74.00;;;;;;5015456;28;20029;-66
2024/01/28 02:01:11;;;;;;;59.88;31.25;;;3.30;74.00;;;;;;5015630;28;20028;-66
2024/01/28 02:03:37;;;;;;;64.03;32.17;;;3.30;74.00;;;;;;5015461;28;20025;-65
2024/01/28 02:06:05;;;;;;;59.72;32.00;;;3.30;73.90;;;;;;5015411;28;20036;-66
2024/01/28 02:08:32;;;;;;;55.88;31.48;;;3.20;74.00;;;;;;5015388;28;20025;-66
2024/01/28 02:11:02;;;;;;;56.75;29.17;;;3.20;74.20;;;;;;5015633;28;20052;-66
2024/01/28 02:13:28;;;;;;;60.20;30.65;;;3.30;74.20;;;;;;5014502;28;20359;-66
2024/01/28 02:15:54;;;;;;;54.60;28.05;;;3.20;74.00;;;;;;5015399;28;20040;-66
2024/01/28 02:18:20;;;;;;;56.65;29.77;;;3.20;73.90;;;;;;5015582;28;20029;-66
2024/01/28 02:20:45;;;;;;;59.08;31.33;;;3.20;74.10;;;;;;5014974;28;20050;-65
2024/01/28 02:23:17;;;;;;;60.20;29.98;;;3.20;74.30;;;;;;5015782;28;20029;-66
2024/01/28 02:25:43;;;;;;;61.35;30.63;;;3.20;74.40;;;;;;5015873;28;20044;-65
2024/01/28 02:28:09;;;;;;;53.25;29.52;;;3.20;74.10;;;;;;5014327;28;20094;-66
2024/01/28 02:30:35;;;;;;;50.72;27.58;;;3.10;74.00;;;;;;5015393;28;20042;-66
2024/01/28 02:33:02;;;;;;;47.88;24.30;;;3.10;74.10;;;;;;5015452;28;20032;-66
2024/01/28 02:35:27;;;;;;;56.00;29.23;;;3.10;74.20;;;;;;5015147;28;20451;-65
2024/01/28 02:37:54;;;;;;;49.58;26.75;;;3.10;73.90;;;;;;5015432;28;20033;-66
2024/01/28 02:40:20;;;;;;;52.17;26.83;;;3.10;73.90;;;;;;5014908;28;20439;-66
2024/01/28 02:42:46;;;;;;;52.25;27.08;;;3.10;74.10;;;;;;5015030;28;20022;-66
2024/01/28 02:45:12;;;;;;;45.33;26.23;;;3.10;74.30;;;;;;5018133;28;20127;-66
2024/01/28 02:47:38;;;;;;;50.22;25.70;;;3.10;74.40;;;;;;5018810;28;20108;-65
2024/01/28 02:50:04;;;;;;;54.60;28.65;;;3.20;74.50;;;;;;5019283;28;20104;-66
2024/01/28 02:52:30;;;;;;;52.20;29.80;;;3.20;74.50;;;;;;5017672;28;20462;-66
2024/01/28 02:54:56;;;;;;;57.45;29.52;;;3.20;74.20;;;;;;5018119;28;20112;-66
2024/01/28 02:57:22;;;;;;;56.30;30.52;;;3.20;74.50;;;;;;5019111;28;20032;-66
2024/01/28 02:59:48;;;;;;;55.05;30.45;;;3.20;74.70;;;;;;5018797;28;20367;-66
2024/01/28 03:02:15;;;;;;;54.13;31.10;;;3.20;74.40;;;;;;5018436;28;20164;-66
2024/01/28 03:04:40;;;;;;;58.08;31.50;;;3.20;74.20;;;;;;5018771;28;20026;-65
2024/01/28 03:07:07;;;;;;;49.15;29.10;;;3.20;74.20;;;;;;5018958;28;20313;-66
2024/01/28 03:09:33;;;;;;;60.08;32.25;;;3.20;74.10;;;;;;5018655;28;20036;-66
2024/01/28 03:11:58;;;;;;;58.88;32.72;;;3.10;74.20;;;;;;5018798;28;20018;-65
2024/01/28 03:14:26;;;;;;;56.42;32.22;;;3.10;74.20;;;;;;5018555;28;20070;-66
2024/01/28 03:16:51;;;;;;;56.85;31.52;;;3.10;74.30;;;;;;5018477;28;20498;-65
2024/01/28 03:19:17;;;;;;;56.05;31.65;;;3.10;74.30;;;;;;5018244;28;20033;-66
2024/01/28 03:21:43;;;;;;;61.72;32.17;;;3.10;74.10;;;;;;5017901;28;20113;-66
2024/01/28 03:24:10;;;;;;;56.75;31.38;;;3.10;74.10;;;;;;5018387;28;20124;-66
2024/01/28 03:26:35;;;;;;;56.47;30.42;;;3.10;74.20;;;;;;5018145;28;20444;-66
2024/01/28 03:29:04;;;;;;;53.80;29.08;;;3.10;74.00;;;;;;5018291;28;20022;-65
2024/01/28 03:31:30;;;;;;;64.03;31.25;;;3.10;74.00;;;;;;5017851;28;20026;-66
2024/01/28 03:33:57;;;;;;;51.28;29.55;;;3.10;74.20;;;;;;5017924;28;20037;-66
2024/01/28 03:36:24;;;;;;;52.35;29.73;;;3.10;74.30;;;;;;5017830;28;20153;-66
2024/01/28 03:38:50;;;;;;;58.00;31.15;;;3.10;74.30;;;;;;5018416;28;20057;-66
2024/01/28 03:41:16;;;;;;;54.95;30.13;;;3.10;74.10;;;;;;5017667;28;20092;-65
2024/01/28 03:43:46;;;;;;;56.97;31.30;;;3.00;74.10;;;;;;5017780;28;20100;-66
2024/01/28 03:46:13;;;;;;;59.97;31.75;;;3.10;74.10;;;;;;5017705;28;20036;-66
2024/01/28 03:48:39;;;;;;;52.22;27.35;;;3.10;74.20;;;;;;5017661;28;20073;-65
2024/01/28 03:51:06;;;;;;;61.53;29.42;;;3.00;74.20;;;;;;5017510;28;20531;-65
2024/01/28 03:53:32;;;;;;;53.67;29.17;;;3.00;74.00;;;;;;5017820;28;20061;-66
2024/01/28 03:55:58;;;;;;;51.35;29.17;;;3.00;74.20;;;;;;5016747;28;20029;-66
2024/01/28 03:58:24;;;;;;;53.55;28.67;;;3.00;74.20;;;;;;5017557;28;20026;-66
2024/01/28 04:00:50;;;;;;;50.38;26.45;;;3.00;74.10;;;;;;5017300;28;20137;-66
2024/01/28 04:03:16;;;;;;;48.65;25.48;;;3.00;74.00;;;;;;5017950;28;20527;-66
2024/01/28 04:05:43;;;;;;;51.78;26.65;;;3.00;74.20;;;;;;5017353;28;20022;-66
2024/01/28 04:08:11;;;;;;;48.30;26.92;;;3.00;74.30;;;;;;5017273;28;20033;-66
2024/01/28 04:10:37;;;;;;;52.08;28.10;;;3.00;74.20;;;;;;5017413;28;20053;-66
2024/01/28 04:13:03;;;;;;;45.40;24.77;;;2.90;73.80;;;;;;5017200;28;20034;-66
2024/01/28 04:15:29;;;;;;;47.33;24.80;;;2.90;73.80;;;;;;5017436;28;20033;-67
2024/01/28 04:17:56;;;;;;;44.80;25.30;;;2.90;73.90;;;;;;5017408;28;20041;-66
2024/01/28 04:20:22;;;;;;;43.05;23.77;;;2.90;74.00;;;;;;5016961;28;20394;-66
2024/01/28 04:22:47;;;;;;;49.53;24.13;;;2.90;74.00;;;;;;5016850;28;20050;-66
2024/01/28 04:25:13;;;;;;;47.40;25.33;;;2.90;73.60;;;;;;5017038;28;20037;-66
2024/01/28 04:27:39;;;;;;;41.75;22.60;;;2.80;73.70;;;;;;5017493;28;20136;-66
2024/01/28 04:30:08;;;;;;;41.53;22.58;;;2.80;73.80;;;;;;5017495;28;20029;-66
2024/01/28 04:32:34;;;;;;;41.45;22.13;;;2.80;73.80;;;;;;5017111;28;20104;-66
2024/01/28 04:35:00;;;;;;;40.75;23.42;;;2.80;73.90;;;;;;5016830;28;20053;-66
2024/01/28 04:37:26;;;;;;;44.00;22.52;;;2.80;74.00;;;;;;5016755;28;20026;-66
2024/01/28 04:39:53;;;;;;;40.80;21.30;;;2.80;73.90;;;;;;5016868;28;20034;-66
2024/01/28 04:42:22;;;;;;;36.97;20.88;;;2.80;73.90;;;;;;5016650;28;20036;-66
2024/01/28 04:44:49;;;;;;;45.70;23.02;;;2.80;73.70;;;;;;5016884;28;20127;-66
2024/01/28 04:47:14;;;;;;;36.80;20.65;;;2.80;73.60;;;;;;5016549;28;20456;-66
2024/01/28 04:49:40;;;;;;;38.90;21.27;;;2.70;73.60;;;;;;5016602;28;20105;-66
2024/01/28 04:52:06;;;;;;;42.42;21.63;;;2.70;73.60;;;;;;5016518;28;20025;-67
2024/01/28 04:54:33;;;;;;;42.90;22.42;;;2.70;73.70;;;;;;5016726;28;20096;-66
2024/01/28 04:57:01;;;;;;;37.05;20.05;;;2.70;73.70;;;;;;5017197;28;20037;-66
2024/01/28 04:59:27;;;;;;;42.22;23.25;;;2.70;73.90;;;;;;5016644;28;20108;-67
2024/01/28 05:01:54;;;;;;;38.88;20.67;;;2.70;73.70;;;;;;5016476;28;20030;-66
2024/01/28 05:04:20;;;;;;;38.58;22.02;;;2.60;73.60;;;;;;5016809;28;20466;-66
2024/01/28 05:06:46;;;;;;;43.28;22.73;;;2.70;73.30;;;;;;5016549;28;20026;-66
2024/01/28 05:09:12;;;;;;;36.70;20.02;;;2.60;73.30;;;;;;5016707;28;20448;-66
2024/01/28 05:11:38;;;;;;;42.25;21.90;;;2.60;73.60;;;;;;5016624;28;20034;-66
2024/01/28 05:14:04;;;;;;;37.35;19.95;;;2.60;73.60;;;;;;5016409;28;20352;-65
2024/01/28 05:16:30;;;;;;;38.28;20.65;;;2.60;73.60;;;;;;5016326;28;20356;-66
2024/01/28 05:18:57;;;;;;;40.17;20.60;;;2.60;73.90;;;;;;5016006;28;20026;-65
2024/01/28 05:21:23;;;;;;;37.05;19.27;;;2.60;73.50;;;;;;5015579;28;20053;-66
2024/01/28 05:23:50;;;;;;;34.20;18.40;;;2.60;73.60;;;;;;5015933;28;20022;-66
2024/01/28 05:26:17;;;;;;;36.03;19.60;;;2.60;73.70;;;;;;5016200;28;20029;-65
2024/01/28 05:28:44;;;;;;;36.70;20.10;;;2.60;73.80;;;;;;5015829;28;20038;-66
2024/01/28 05:31:11;;;;;;;35.25;19.08;;;2.60;73.70;;;;;;5015765;28;20478;-65
2024/01/28 05:33:37;;;;;;;34.10;19.45;;;2.60;73.70;;;;;;5015882;28;20044;-66
2024/01/28 05:36:13;;;;;;;34.97;18.33;;;2.50;73.60;;;;;;5015990;28;20362;-65
2024/01/28 05:38:40;;;;;;;33.92;18.92;;;2.60;73.70;;;;;;5015938;28;20069;-66
2024/01/28 05:41:09;;;;;;;32.50;17.02;;;2.50;73.90;;;;;;5015843;28;20435;-65
2024/01/28 05:43:35;;;;;;;36.42;19.50;;;2.50;73.70;;;;;;5015968;28;20029;-66
2024/01/28 05:46:02;;;;;;;38.30;20.40;;;2.50;73.80;;;;;;5015881;28;20030;-65
2024/01/28 05:48:28;;;;;;;33.67;17.70;;;2.50;73.50;;;;;;5015606;28;20033;-65
2024/01/28 05:50:54;;;;;;;35.35;18.17;;;2.50;73.40;;;;;;5015551;28;20339;-65
2024/01/28 05:53:20;;;;;;;32.85;18.65;;;2.50;73.40;;;;;;5015881;28;20037;-66
2024/01/28 05:55:45;;;;;;;39.35;18.92;;;2.50;73.40;;;;;;5016096;28;20041;-66
2024/01/28 05:58:11;;;;;;;35.95;19.42;;;2.50;73.70;;;;;;5015545;28;20024;-66
2024/01/28 06:00:37;;;;;;;35.20;18.50;;;2.50;73.60;;;;;;5015623;28;20030;-66
2024/01/28 06:03:04;;;;;;;41.15;20.05;;;2.50;73.40;;;;;;5015461;28;20022;-66
2024/01/28 06:05:30;;;;;;;36.08;17.92;;;2.40;73.30;;;;;;5015714;28;20125;-66
2024/01/28 06:07:56;;;;;;;33.25;19.23;;;2.40;73.50;;;;;;5015758;28;20475;-66
2024/01/28 06:10:22;;;;;;;35.45;19.52;;;2.40;73.30;;;;;;5015855;28;20033;-66
2024/01/28 06:12:47;;;;;;;30.75;18.05;;;2.30;72.90;;;;;;5015700;28;20443;-66
2024/01/28 06:15:13;;;;;;;39.70;19.17;;;2.20;73.20;;;;;;5015449;28;20034;-66
2024/01/28 06:17:40;;;;;;;38.72;19.05;;;2.20;73.70;;;;;;5015617;28;20050;-66
2024/01/28 06:20:07;;;;;;;36.75;19.42;;;2.20;73.80;;;;;;5018410;28;20030;-66
2024/01/28 06:22:33;;;;;;;36.05;18.70;;;2.20;73.60;;;;;;5019037;28;20128;-66
2024/01/28 06:25:00;;;;;;;37.28;19.17;;;2.30;73.80;;;;;;5019209;28;20459;-66
2024/01/28 06:27:26;;;;;;;34.47;18.25;;;2.30;73.80;;;;;;5019265;28;20033;-66
2024/01/28 06:29:53;;;;;;;36.05;17.23;;;2.30;73.80;;;;;;5019156;28;20056;-66
2024/01/28 06:32:21;;;;;;;31.58;17.10;;;2.30;73.80;;;;;;5019334;28;20026;-66
2024/01/28 06:34:47;;;;;;;38.35;18.35;;;2.30;73.50;;;;;;5019063;28;20026;-66
2024/01/28 06:37:12;;;;;;;35.00;18.10;;;2.30;73.70;;;;;;5019293;28;20068;-66
2024/01/28 06:39:38;;;;;;;36.83;19.38;;;2.30;73.70;;;;;;5018956;28;20057;-66
2024/01/28 06:42:04;;;;;;;38.53;20.30;;;2.30;73.50;;;;;;5019165;28;20050;-66
2024/01/28 06:44:32;;;;;;;44.13;18.88;;;2.20;73.50;;;;;;5019408;28;20022;-66
2024/01/28 06:47:02;;;;;;;39.25;19.65;;;2.20;73.70;;;;;;5018846;28;20022;-66
2024/01/28 06:49:27;;;;;;;43.78;23.02;;;2.30;73.60;;;;;;5018840;28;20018;-66
2024/01/28 06:51:53;;;;;;;38.22;20.75;;;2.30;73.70;;;;;;5019230;28;20033;-66
2024/01/28 06:54:21;;;;;;;45.15;22.73;;;2.30;73.50;;;;;;5019017;28;20038;-66
2024/01/28 06:56:51;;;;;;;42.60;21.38;;;2.20;73.50;;;;;;5018917;28;20033;-66
2024/01/28 06:59:18;;;;;;;43.40;21.98;;;2.30;73.60;;;;;;5018668;28;20363;-66
2024/01/28 07:01:45;;;;;;;44.78;25.02;;;2.30;73.70;;;;;;5018393;28;20022;-66
2024/01/28 07:04:11;;;;;;;43.38;22.40;;;2.30;74.00;;;;;;5018831;28;20030;-66
2024/01/28 07:06:37;;;;;;;44.15;24.27;;;2.30;74.10;;;;;;5018527;28;20026;-66
2024/01/28 07:09:03;;;;;;;49.13;25.58;;;2.40;74.30;;;;;;5018450;28;20103;-66
2024/01/28 07:11:29;;;;;;;51.70;26.58;;;2.40;74.00;;;;;;5018547;28;20418;-66
2024/01/28 07:13:54;;;;;;;51.97;27.25;;;2.40;73.90;;;;;;5018438;28;20101;-66
2024/01/28 07:16:20;;;;;;;54.42;29.55;;;2.40;73.80;;;;;;5018439;28;20030;-66
2024/01/28 07:18:46;;;;;;;58.00;31.63;;;2.50;74.30;;;;;;5018666;28;20057;-66
2024/01/28 07:21:13;;;;;;;60.75;29.05;;;2.60;74.30;;;;;;5017843;28;20042;-66
2024/01/28 07:23:40;;;;;;;55.38;28.77;;;2.60;74.20;;;;;;5018568;28;20030;-66
2024/01/28 07:26:09;;;;;;;59.63;30.25;;;2.70;74.50;;;;;;5018244;28;20036;-66
2024/01/28 07:28:36;;;;;;;52.83;28.25;;;2.70;74.70;;;;;;5018119;28;20329;-66
2024/01/28 07:31:02;;;;;;;56.00;29.15;;;2.70;74.50;;;;;;5018508;28;20420;-66
2024/01/28 07:33:28;;;;;;;52.53;27.75;;;2.80;74.60;;;;;;5018083;28;20034;-66
2024/01/28 07:35:54;;;;;;;58.00;29.88;;;2.90;74.50;;;;;;5018524;28;20436;-66
2024/01/28 07:38:19;;;;;;;57.05;30.45;;;3.00;75.00;;;;;;5018448;28;20026;-66
2024/01/28 07:40:45;;;;;;;58.42;30.15;;;3.10;75.00;;;;;;5017744;28;20390;-66
2024/01/28 07:43:12;;;;;;;56.22;28.83;;;3.30;74.50;;;;;;5017829;28;20021;-67
2024/01/28 07:45:38;;;;;;;53.50;27.92;;;3.40;74.50;;;;;;5017736;28;20347;-66
2024/01/28 07:48:04;;;;;;;60.00;29.73;;;3.60;74.50;;;;;;5017737;28;20022;-65
2024/01/28 07:50:30;;;;;;;55.15;30.63;;;3.70;74.50;;;;;;5017877;28;20026;-66
2024/01/28 07:52:56;;;;;;;51.05;30.52;;;3.90;74.70;;;;;;5018185;28;20041;-66
2024/01/28 07:55:21;;;;;;;58.97;31.55;;;4.00;74.60;;;;;;5017598;28;20018;-66
2024/01/28 07:57:47;;;;;;;56.10;30.63;;;4.10;74.70;;;;;;5017551;28;20030;-66
2024/01/28 08:00:14;;;;;;;58.03;31.23;;;4.30;74.30;;;;;;5017343;28;20053;-66
2024/01/28 08:02:40;;;;;;;60.13;30.90;;;4.40;74.10;;;;;;5017394;28;20389;-66
2024/01/28 08:05:06;;;;;;;63.13;30.65;;;4.50;74.40;;;;;;5017673;28;20060;-66
2024/01/28 08:07:32;;;;;;;58.28;30.33;;;4.60;74.30;;;;;;5017616;28;20026;-66
2024/01/28 08:09:58;;;;;;;55.55;31.52;;;4.70;74.00;;;;;;5017589;28;20113;-66
2024/01/28 08:12:25;;;;;;;59.30;31.88;;;4.80;74.10;;;;;;5017729;28;20034;-66
2024/01/28 08:14:50;;;;;;;61.42;32.95;;;4.90;74.00;;;;;;5017275;28;20036;-67
2024/01/28 08:17:16;;;;;;;60.97;34.15;;;5.00;74.00;;;;;;5017709;28;20101;-66
2024/01/28 08:19:42;;;;;;;53.00;30.20;;;5.10;73.80;;;;;;5017111;28;20325;-66
2024/01/28 08:22:09;;;;;;;63.78;36.03;;;5.30;73.80;;;;;;5016862;28;20050;-66
2024/01/28 08:24:35;;;;;;;65.30;34.70;;;5.40;73.70;;;;;;5017642;28;20022;-66
2024/01/28 08:27:01;;;;;;;62.08;35.25;;;5.50;73.40;;;;;;5017016;28;20037;-66
2024/01/28 08:29:27;;;;;;;61.58;35.85;;;5.60;73.40;;;;;;5017222;28;20073;-67
2024/01/28 08:31:52;;;;;;;61.55;36.45;;;5.80;72.80;;;;;;5017101;28;20029;-67
2024/01/28 08:34:19;;;;;;;65.25;33.80;;;5.80;72.80;;;;;;5017363;28;20060;-66
2024/01/28 08:36:45;;;;;;;65.00;35.63;;;5.90;72.60;;;;;;5017128;28;20100;-66
2024/01/28 08:39:14;;;;;;;58.75;33.88;;;5.90;72.30;;;;;;5017334;28;20030;-66
2024/01/28 08:41:40;;;;;;;59.72;33.63;;;6.00;72.40;;;;;;5016007;28;20039;-66
2024/01/28 08:44:07;;;;;;;50.72;28.92;;;6.10;72.30;;;;;;5016729;28;20106;-66
2024/01/28 08:46:37;;;;;;;48.00;27.77;;;6.20;72.30;;;;;;5016924;28;20026;-66
2024/01/28 08:49:03;;;;;;;42.60;24.27;;;6.30;72.20;;;;;;5016936;28;20046;-66
2024/01/28 08:51:29;;;;;;;42.50;25.63;;;6.40;72.20;;;;;;5016520;28;20164;-66
2024/01/28 08:53:55;;;;;;;47.97;26.70;;;6.50;71.90;;;;;;5016567;28;20069;-67
2024/01/28 08:56:21;;;;;;;47.15;27.20;;;6.60;71.80;;;;;;5015863;28;20113;-66
2024/01/28 08:58:46;;;;;;;49.08;26.88;;;6.80;71.80;;;;;;5016703;28;20402;-67
2024/01/28 09:01:13;;;;;;;47.45;25.95;;;6.80;71.70;;;;;;5016475;28;20026;-66
2024/01/28 09:03:40;;;;;;;47.00;25.83;;;6.90;71.20;;;;;;5016620;28;20034;-67
2024/01/28 09:06:06;;;;;;;39.67;23.75;;;7.00;70.80;;;;;;5016327;28;20473;-66
2024/01/28 09:08:33;;;;;;;45.92;25.40;;;7.10;71.10;;;;;;5016287;28;20025;-67
2024/01/28 09:11:00;;;;;;;39.70;22.77;;;7.20;71.20;;;;;;5016176;28;20030;-67
2024/01/28 09:13:26;;;;;;;44.38;25.77;;;7.30;70.90;;;;;;5016155;28;20041;-67
2024/01/28 09:15:53;;;;;;;54.53;32.70;;;7.50;70.40;;;;;;5016161;28;20092;-66
2024/01/28 09:18:20;;;;;;;45.47;26.48;;;7.60;70.20;;;;;;5016017;28;20081;-67
2024/01/28 09:20:45;;;;;;;39.80;21.95;;;7.70;70.10;;;;;;5015711;28;20022;-67
2024/01/28 09:23:11;;;;;;;41.35;24.63;;;7.90;69.70;;;;;;5016313;28;20044;-66
2024/01/28 09:25:37;;;;;;;42.80;25.73;;;8.00;69.30;;;;;;5261452;23;20043;-69
2024/01/28 09:28:04;;;;;;;42.08;25.15;;;8.10;69.10;;;;;;4976851;28;20106;-67
2024/01/28 09:30:30;;;;;;;43.67;26.08;;;8.20;68.80;;;;;;4976802;28;20035;-69
2024/01/28 09:32:56;;;;;;;42.38;24.45;;;8.30;69.00;;;;;;4975748;28;20030;-65
2024/01/28 09:35:22;;;;;;;40.35;25.63;;;8.30;69.30;;;;;;4976916;28;20023;-65
2024/01/28 09:37:48;;;;;;;45.00;26.42;;;8.40;69.10;;;;;;4976960;28;20027;-69
2024/01/28 09:40:15;;;;;;;44.85;25.17;;;8.50;69.20;;;;;;4976803;28;20034;-67
2024/01/28 09:42:58;;;;;;;41.05;23.92;;;8.60;69.20;;;;;;4976593;28;20023;-65
2024/01/28 09:45:26;;;;;;;39.85;23.50;;;8.80;68.50;;;;;;4976780;28;20051;-67
2024/01/28 09:47:53;;;;;;;37.25;22.05;;;8.80;68.10;;;;;;4976496;28;20097;-67
2024/01/28 09:50:20;;;;;;;34.70;21.60;;;8.90;68.00;;;;;;4976815;28;20449;-68
2024/01/28 09:52:46;;;;;;;30.70;19.70;;;8.90;68.30;;;;;;4976175;28;20026;-63
2024/01/28 09:55:12;;;;;;;41.22;25.02;;;9.00;67.10;;;;;;4975786;28;20046;-66
2024/01/28 09:57:39;;;;;;;32.90;19.05;;;9.10;67.50;;;;;;4976673;28;20105;-67
2024/01/28 10:00:07;;;;;;;32.28;20.15;;;9.20;67.30;;;;;;4976237;28;20050;-67
2024/01/28 10:02:35;;;;;;;33.85;20.83;;;9.30;66.50;;;;;;4976319;28;20055;-66
2024/01/28 10:05:03;;;;;;;41.05;24.30;;;9.40;66.00;;;;;;4976190;28;20034;-67
2024/01/28 10:07:29;;;;;;;40.70;23.25;;;9.50;65.70;;;;;;4976606;28;20098;-66
2024/01/28 10:09:55;;;;;;;37.20;24.13;;;9.70;65.80;;;;;;4976540;28;20027;-65
2024/01/28 10:12:21;;;;;;;39.00;23.38;;;9.70;64.20;;;;;;4975286;28;20039;-66
2024/01/28 10:14:53;;;;;;;41.03;24.92;;;9.80;65.10;;;;;;4976244;28;20034;-66
2024/01/28 10:17:22;;;;;;;43.63;26.63;;;9.80;64.70;;;;;;4976281;28;20362;-67
2024/01/28 10:19:48;;;;;;;51.30;29.77;;;9.90;63.50;;;;;;4976051;28;20352;-67
2024/01/28 10:22:13;;;;;;;56.50;33.33;;;9.90;64.60;;;;;;4976211;28;20023;-66
2024/01/28 10:24:42;;;;;;;51.38;32.17;;;10.00;64.50;;;;;;4976078;28;20031;-69
2024/01/28 10:27:08;;;;;;;42.63;26.67;;;10.10;64.20;;;;;;4976448;28;20156;-69
2024/01/28 10:29:34;;;;;;;43.88;27.40;;;10.10;64.20;;;;;;4976157;28;20031;-66
2024/01/28 10:32:01;;;;;;;45.63;28.48;;;10.20;63.80;;;;;;4976360;28;20073;-66
2024/01/28 10:34:27;;;;;;;41.92;26.60;;;10.20;63.30;;;;;;4976042;28;20038;-64
2024/01/28 10:36:56;;;;;;;42.53;26.98;;;10.30;63.80;;;;;;4976031;28;20023;-66
2024/01/28 10:39:23;;;;;;;44.42;27.52;;;10.30;64.10;;;;;;4976259;28;20022;-68
2024/01/28 10:41:56;;;;;;;42.95;26.75;;;10.40;64.20;;;;;;4975894;28;20040;-65
2024/01/28 10:44:23;;;;;;;47.25;28.30;;;10.40;64.50;;;;;;4976687;28;20035;-66
2024/01/28 10:46:54;;;;;;;43.33;27.70;;;10.50;64.20;;;;;;4976488;28;20015;-67
2024/01/28 10:49:31;;;;;;;40.05;24.65;;;10.50;63.60;;;;;;4975996;28;20023;-68
2024/01/28 10:51:57;;;;;;;40.60;25.27;;;10.60;63.30;;;;;;4976275;28;20074;-64
2024/01/28 10:54:24;;;;;;;36.72;23.25;;;10.60;63.40;;;;;;4975886;28;20031;-66
2024/01/28 10:56:54;;;;;;;33.70;21.85;;;10.70;63.70;;;;;;4975905;28;20449;-66
2024/01/28 10:59:20;;;;;;;34.30;21.30;;;10.80;63.60;;;;;;4975813;28;20035;-67
2024/01/28 11:01:48;;;;;;;41.47;27.40;;;10.90;62.90;;;;;;4976058;28;20402;-64
2024/01/28 11:04:14;;;;;;;37.30;25.05;;;10.90;63.60;;;;;;4975702;28;20027;-64
2024/01/28 11:06:41;;;;;;;37.47;23.67;;;11.00;64.20;;;;;;4979216;28;20023;-67
2024/01/28 11:09:07;;;;;;;37.47;24.33;;;11.10;64.10;;;;;;4979532;28;20085;-64
2024/01/28 11:11:33;;;;;;;40.42;26.77;;;11.10;63.30;;;;;;4979769;28;20026;-67
2024/01/28 11:14:07;;;;;;;42.97;25.35;;;11.20;63.30;;;;;;4979481;28;20077;-66
2024/01/28 11:16:33;;;;;;;36.08;23.63;;;11.20;63.60;;;;;;4979115;28;20035;-65
2024/01/28 11:19:06;;;;;;;41.60;25.98;;;11.30;63.10;;;;;;4979426;28;20113;-68
2024/01/28 11:21:35;;;;;;;38.50;24.63;;;11.40;63.10;;;;;;4979024;28;20512;-66
2024/01/28 11:24:10;;;;;;;38.13;24.90;;;11.40;63.00;;;;;;4979113;28;20488;-67
2024/01/28 11:26:38;;;;;;;38.88;24.85;;;11.40;63.10;;;;;;4978900;28;20060;-67
2024/01/28 11:29:08;;;;;;;40.67;26.15;;;11.50;62.60;;;;;;4979006;28;20059;-64
2024/01/28 11:31:42;;;;;;;40.20;25.88;;;11.60;63.20;;;;;;4978935;28;20515;-65
2024/01/28 11:34:13;;;;;;;43.80;26.42;;;11.60;63.30;;;;;;4978962;28;20456;-64
2024/01/28 11:36:43;;;;;;;43.20;27.38;;;11.70;63.70;;;;;;4979126;28;20125;-66
2024/01/28 11:39:12;;;;;;;44.00;27.10;;;11.80;63.60;;;;;;4978723;28;20109;-66
2024/01/28 11:41:41;;;;;;;38.00;23.75;;;11.80;63.00;;;;;;4978639;28;20431;-68
2024/01/28 11:44:08;;;;;;;37.95;24.90;;;11.90;62.80;;;;;;4979469;28;20069;-63
2024/01/28 11:46:38;;;;;;;40.40;25.20;;;11.90;62.30;;;;;;4978872;28;20038;-66
2024/01/28 11:49:06;;;;;;;40.03;25.40;;;12.00;61.80;;;;;;4978641;28;20026;-66
2024/01/28 11:51:34;;;;;;;40.10;24.27;;;12.00;61.20;;;;;;4978570;28;20038;-67
2024/01/28 11:54:04;;;;;;;40.40;23.42;;;12.00;61.00;;;;;;4978475;28;20501;-65
2024/01/28 11:56:34;;;;;;;39.95;24.08;;;12.10;61.60;;;;;;4978345;28;20052;-65
2024/01/28 11:59:03;;;;;;;41.65;24.60;;;12.20;61.20;;;;;;4978075;28;20301;-65
2024/01/28 12:01:29;;;;;;;41.17;23.98;;;12.20;60.80;;;;;;4978350;28;20444;-66
2024/01/28 12:03:56;;;;;;;41.88;23.95;;;12.20;60.80;;;;;;4978642;28;20022;-66
2024/01/28 12:06:30;;;;;;;37.88;21.27;;;12.30;61.50;;;;;;4978201;28;20396;-64
2024/01/28 12:08:57;;;;;;;36.55;22.17;;;12.40;60.90;;;;;;4978181;28;20105;-68
2024/01/28 12:11:33;;;;;;;35.97;20.27;;;12.40;59.70;;;;;;4977217;28;20058;-67
2024/01/28 12:14:00;;;;;;;28.45;18.08;;;12.50;60.40;;;;;;4978150;28;20049;-64
2024/01/28 12:16:26;;;;;;;28.25;16.70;;;12.60;60.10;;;;;;4977081;28;20030;-67
2024/01/28 12:18:56;;;;;;;25.77;16.42;;;12.60;59.40;;;;;;4978325;28;20019;-65
2024/01/28 12:21:27;;;;;;;24.67;15.98;;;12.70;58.90;;;;;;4977882;28;20042;-64
2024/01/28 12:23:54;;;;;;;24.02;16.02;;;12.70;57.60;;;;;;4977944;28;20034;-66
2024/01/28 12:26:21;;;;;;;23.65;15.23;;;12.70;55.50;;;;;;4977669;28;20042;-63
2024/01/28 12:28:50;;;;;;;27.42;17.77;;;12.80;56.50;;;;;;4978405;28;20027;-65
2024/01/28 12:31:19;;;;;;;25.33;16.77;;;12.80;56.20;;;;;;4977849;28;20102;-66
2024/01/28 12:33:46;;;;;;;21.45;13.98;;;12.80;56.00;;;;;;4977772;28;20090;-65